DW3853 Weather Reports


Display with metric or nautical units.
time (UTC)temp
F
wind
direction
speed
MPH
gust
MPH
rain 1hr
in
rain 24hr
in
rain mn
in
humidity
%
barometer
mb
20210726010032 72 255 6.0 16.0 0.00 0.12 0.12 92 1011.0
20210726005020 72 194 6.0 12.0 0.00 0.12 0.12 92 1010.9
20210726003946 72 220 4.0 16.0 0.00 0.12 0.12 91 1010.7
20210726002913 72 232 6.0 16.0 0.00 0.12 0.12 90 1010.6
20210726001852 72 232 7.0 15.0 0.00 0.12 0.12 90 1010.6
20210726000827 72 250 5.0 12.0 0.00 0.12 0.12 89 1010.4
20210725235811 72 266 6.0 14.0 0.00 0.12 0.12 89 1010.5
20210725234811 72 227 6.0 17.0 0.00 0.12 0.12 89 1010.6
20210725233829 72 244 6.0 17.0 0.00 0.12 0.12 88 1010.7
20210725232834 72 233 7.0 17.0 0.00 0.12 0.12 88 1010.8
20210725231853 72 170 7.0 17.0 0.00 0.12 0.12 88 1010.7
20210725230902 72 171 7.0 14.0 0.00 0.12 0.12 88 1010.7
20210725225853 72 242 8.0 17.0 0.00 0.12 0.12 88 1010.8
20210725224913 72 220 9.0 21.0 0.00 0.12 0.12 88 1010.7
20210725223935 72 228 9.0 21.0 0.00 0.12 0.12 88 1010.7
20210725222947 71 228 8.0 16.0 0.00 0.12 0.12 89 1010.9
20210725221943 71 212 7.0 14.0 0.00 0.12 0.12 89 1010.9
20210725220909 71 215 8.0 15.0 0.00 0.12 0.12 89 1010.9
20210725215847 71 237 7.0 16.0 0.00 0.12 0.12 89 1011.0
20210725214905 70 214 8.0 20.0 0.00 0.12 0.12 90 1011.0
20210725213926 70 186 7.0 20.0 0.00 0.12 0.12 91 1011.0
20210725212933 70 244 7.0 11.0 0.00 0.12 0.12 91 1011.0
20210725211919 69 233 5.0 11.0 0.00 0.12 0.12 90 1011.2
20210725210847 69 173 5.0 10.0 0.00 0.12 0.12 89 1011.4
20210725205829 69 225 5.0 9.0 0.00 0.12 0.12 90 1011.4
20210725204832 69 192 6.0 21.0 0.00 0.12 0.12 90 1011.6
20210725203831 69 207 7.0 21.0 0.00 0.12 0.12 90 1011.7
20210725202820 69 197 8.0 18.0 0.00 0.12 0.12 90 1011.8
20210725201754 69 209 8.0 15.0 0.00 0.12 0.12 91 1011.8
20210725200817 69 214 9.0 20.0 0.00 0.12 0.12 91 1011.8
20210725195832 69 247 10.0 20.0 0.00 0.12 0.12 91 1011.9
20210725194850 69 200 9.0 20.0 0.00 0.12 0.12 91 1012.0
20210725193913 69 237 9.0 22.0 0.00 0.12 0.12 91 1012.2
20210725192915 69 223 11.0 22.0 0.00 0.12 0.12 91 1012.2
20210725191906 70 246 9.0 20.0 0.00 0.12 0.12 92 1012.2
20210725190850 70 229 9.0 20.0 0.00 0.12 0.12 92 1012.3
20210725185824 70 238 9.0 22.0 0.00 0.12 0.12 92 1012.4
20210725184841 70 240 9.0 22.0 0.06 0.12 0.12 91 1012.4
20210725183858 70 207 7.0 18.0 0.10 0.10 0.10 91 1012.7
20210725182916 70 240 7.0 14.0 0.00 0.09 0.09 91 1013.0
20210725181842 69 233 6.0 14.0 0.00 0.08 0.08 90 1013.1
20210725180855 69 275 6.0 14.0 0.08 0.08 0.08 89 1013.1
20210725175826 70 181 6.0 14.0 0.21 0.06 0.06 86 1013.1
20210725174829 70 263 7.0 13.0 0.00 0.02 0.02 83 1013.2
20210725173808 71 190 6.0 15.0 0.00 0.01 0.01 82 1013.1
20210725172827 71 240 7.0 18.0 0.00 0.01 0.01 81 1013.2
20210725171801 71 225 8.0 18.0 0.00 0.01 0.01 82 1013.2
20210725170734 71 218 8.0 22.0 0.00 0.01 0.01 83 1013.3
20210725165730 71 222 9.0 22.0 0.00 0.01 0.01 85 1013.4
20210725164702 71 237 9.0 18.0 0.00 0.01 0.01 86 1013.3
20210725163702 71 242 8.0 18.0 0.00 0.01 0.01 86 1013.3
20210725162716 71 240 7.0 17.0 0.00 0.01 0.01 85 1013.3
20210725161644 71 223 7.0 16.0 0.00 0.01 0.01 84 1013.3
20210725160707 71 215 7.0 12.0 0.00 0.01 0.01 84 1013.5
20210725155706 71 225 6.0 16.0 0.00 0.01 0.01 84 1013.5
20210725154731 71 232 8.0 16.0 0.00 0.01 0.01 84 1013.5
20210725153753 72 227 8.0 20.0 0.00 0.01 0.01 83 1013.7
20210725152810 73 250 10.0 20.0 0.00 0.00 0.00 83 1013.8
20210725151815 73 197 10.0 19.0 0.00 0.00 0.00 84 1013.8
20210725150839 73 211 9.0 16.0 0.00 0.00 0.00 86 1013.7
20210725145827 73 242 7.0 16.0 0.00 0.00 0.00 87 1013.7
20210725144822 73 222 7.0 14.0 0.00 0.00 0.00 87 1013.8
20210725143802 74 230 6.0 15.0 0.00 0.00 0.00 87 1013.9
20210725142801 74 263 7.0 15.0 0.00 0.00 0.00 87 1013.9
20210725141733 73 245 6.0 15.0 0.00 0.00 0.00 87 1014.1
20210725140730 72 175 7.0 14.0 0.00 0.00 0.00 87 1014.2
20210725135746 72 247 6.0 16.0 0.00 0.00 0.00 88 1014.2
20210725134743 72 237 7.0 16.0 0.00 0.00 0.00 88 1014.2
20210725015616 67 210 3.0 6.0 0.00 0.00 0.00 86 1016.9
20210725014558 68 191 3.0 6.0 0.00 0.00 0.00 88 1016.8
20210725013530 68 194 3.0 6.0 0.00 0.00 0.00 87 1016.9
20210725012504 68 160 3.0 5.0 0.00 0.00 0.00 85 1017.0
20210725011440 67 191 2.0 4.0 0.00 0.00 0.00 82 1017.3
20210725010424 67 191 2.0 4.0 0.00 0.00 0.00 80 1017.3